Weller, Illinois
Current Conditions -  °F | °C
As of 8:52 PM on Sunday 23 Nov 2014 (Local Time) from KMLI Reporting Station
Haze Haze  
Wind Chill: 49°   Ceiling: 300
Heat Index: 49°   Visibility: 0.75mi
Dew Point: 48°   Wind: 3mph
Humidity: 97%   Direction: 100°E
Pressure: 29.2"   Gusts: NA
Location:  41.3189°N, 90.1549°W
Report Text: KMLI 240252Z 10003KT 3/4SM R09/2800V3500FT BR OVC003 09/09 A2920 RMK AO2 RAB00E23 SLP888 P0001 60002 T00940089 58030 $
Loading
Personal Weather Stations






























Interactive Weather Map New forecast layout! Learn more

10-Day Weather Forecast

Advertisements
Track Severe Weather on mobile